createdAt,value
2023-05-14T00:02:13.411Z,5.40
2023-05-14T00:04:41.129Z,6.15
2023-05-14T00:07:08.077Z,8.75
2023-05-14T00:09:35.517Z,6.18
2023-05-14T00:12:02.639Z,5.25
2023-05-14T00:14:29.577Z,7.25
2023-05-14T00:16:56.496Z,7.50
2023-05-14T00:19:23.718Z,5.68
2023-05-14T00:21:50.681Z,8.15
2023-05-14T00:24:17.865Z,6.97
2023-05-14T00:26:44.960Z,18.77
2023-05-14T00:29:11.892Z,6.75
2023-05-14T00:31:38.993Z,5.32
2023-05-14T00:34:05.966Z,4.72
2023-05-14T00:36:32.925Z,4.95
2023-05-14T00:39:00.165Z,6.45
2023-05-14T00:41:27.139Z,5.70
2023-05-14T00:43:54.309Z,5.43
2023-05-14T00:46:21.494Z,5.25
2023-05-14T00:48:48.580Z,7.38
2023-05-14T00:51:16.598Z,7.35
2023-05-14T00:53:43.614Z,6.65
2023-05-14T00:56:10.788Z,8.00
2023-05-14T00:58:37.750Z,4.10
2023-05-14T01:01:04.812Z,4.05
2023-05-14T01:03:32.482Z,4.25
2023-05-14T01:06:26.103Z,6.07
2023-05-14T01:09:20.466Z,6.63
2023-05-14T01:12:12.644Z,5.22
2023-05-14T01:14:51.114Z,5.68
2023-05-14T01:17:20.399Z,6.20
2023-05-14T01:19:48.416Z,5.50
2023-05-14T01:22:15.405Z,5.60
2023-05-14T01:24:42.307Z,4.47
2023-05-14T01:27:25.075Z,5.47
2023-05-14T01:30:24.381Z,7.15
2023-05-14T01:32:54.525Z,4.78
2023-05-14T01:35:26.025Z,3.63
2023-05-14T01:37:57.472Z,4.72
2023-05-14T01:40:25.270Z,9.68
2023-05-14T01:42:54.077Z,8.90
2023-05-14T01:45:22.348Z,8.05
2023-05-14T01:47:49.617Z,9.48
2023-05-14T01:50:17.059Z,8.95
2023-05-14T01:52:44.306Z,8.73
2023-05-14T01:55:11.519Z,6.35
2023-05-14T01:57:38.471Z,6.40
2023-05-14T02:00:06.268Z,7.40
2023-05-14T02:02:41.089Z,7.57
2023-05-14T02:05:12.605Z,6.40
2023-05-14T02:08:13.720Z,7.28
2023-05-14T02:10:40.670Z,8.27
2023-05-14T02:13:09.583Z,7.13
2023-05-14T02:15:36.487Z,5.50
2023-05-14T02:18:03.521Z,6.75
2023-05-14T02:20:30.613Z,11.15
2023-05-14T02:22:57.583Z,11.32
2023-05-14T02:25:24.589Z,5.15
2023-05-14T02:27:51.552Z,6.07
2023-05-14T02:30:18.471Z,6.00
2023-05-14T02:32:45.928Z,10.20
2023-05-14T02:35:13.027Z,6.18
2023-05-14T02:37:39.871Z,6.70
2023-05-14T02:40:07.424Z,7.00
2023-05-14T02:42:34.900Z,7.65
2023-05-14T02:45:01.826Z,6.18
2023-05-14T02:47:28.866Z,8.50
2023-05-14T02:49:56.061Z,5.13
2023-05-14T02:52:23.300Z,5.32
2023-05-14T02:54:50.302Z,8.57
2023-05-14T02:57:17.247Z,9.60
2023-05-14T02:59:44.176Z,7.07
2023-05-14T03:02:11.493Z,8.57
2023-05-14T03:04:40.094Z,7.50
2023-05-14T03:07:07.074Z,8.52
2023-05-14T03:09:35.398Z,7.88
2023-05-14T03:12:03.738Z,8.70
2023-05-14T03:14:30.794Z,6.75
2023-05-14T03:16:57.814Z,7.25
2023-05-14T03:19:25.001Z,10.13
2023-05-14T03:21:51.907Z,12.73
2023-05-14T03:24:19.078Z,9.48
2023-05-14T03:26:46.112Z,12.73
2023-05-14T03:29:13.650Z,10.00
2023-05-14T03:31:40.639Z,8.63
2023-05-14T03:34:07.499Z,7.82
2023-05-14T03:36:36.346Z,10.23
2023-05-14T03:39:03.332Z,8.02
2023-05-14T03:41:30.292Z,10.00
2023-05-14T03:43:57.265Z,7.90
2023-05-14T03:46:24.256Z,7.55
2023-05-14T03:48:51.177Z,7.47
2023-05-14T03:51:18.543Z,7.72
2023-05-14T03:53:45.805Z,6.43
2023-05-14T03:56:13.489Z,6.45
2023-05-14T03:58:40.710Z,8.65
2023-05-14T04:01:07.692Z,7.35
2023-05-14T04:03:34.939Z,7.40
2023-05-14T04:06:02.313Z,8.98
2023-05-14T04:08:29.313Z,7.47
2023-05-14T04:10:56.911Z,8.10
2023-05-14T04:13:23.962Z,6.78
2023-05-14T04:15:51.093Z,9.65
2023-05-14T04:18:18.376Z,9.50
2023-05-14T04:20:45.222Z,9.70
2023-05-14T04:23:12.960Z,7.82
2023-05-14T04:25:40.049Z,8.13
2023-05-14T04:28:06.976Z,8.40
2023-05-14T04:30:33.866Z,9.35
2023-05-14T04:33:00.839Z,8.27
2023-05-14T04:35:27.753Z,7.47
2023-05-14T04:37:54.777Z,6.15
2023-05-14T04:40:22.785Z,8.23
2023-05-14T04:42:50.241Z,6.75
2023-05-14T04:45:17.306Z,6.15
2023-05-14T04:47:45.094Z,7.25
2023-05-14T04:50:12.115Z,7.72
2023-05-14T04:52:39.288Z,8.73
2023-05-14T04:55:06.855Z,7.88
2023-05-14T04:57:33.852Z,6.97
2023-05-14T05:00:00.978Z,8.02
2023-05-14T05:02:28.022Z,7.82
2023-05-14T05:04:54.985Z,6.18
2023-05-14T05:07:21.898Z,7.55
2023-05-14T05:09:48.795Z,5.65
2023-05-14T05:12:15.891Z,7.18
2023-05-14T05:14:42.958Z,7.95
2023-05-14T05:17:09.871Z,7.95
2023-05-14T05:19:43.657Z,7.13
2023-05-14T05:22:11.505Z,7.75
2023-05-14T05:24:38.420Z,6.90
2023-05-14T05:27:06.151Z,8.82
2023-05-14T05:29:33.147Z,10.25
2023-05-14T05:32:00.176Z,6.90
2023-05-14T05:34:27.554Z,7.28
2023-05-14T05:36:54.484Z,8.98
2023-05-14T05:39:21.306Z,9.05
2023-05-14T05:41:48.200Z,9.60
2023-05-14T05:44:15.096Z,9.98
2023-05-14T05:46:42.161Z,6.88
2023-05-14T05:49:09.018Z,7.10
2023-05-14T05:51:36.190Z,8.07
2023-05-14T05:54:03.347Z,6.55
2023-05-14T05:56:30.850Z,6.32
2023-05-14T05:58:57.825Z,7.20
2023-05-14T06:01:24.784Z,6.03
2023-05-14T06:03:53.218Z,7.00
2023-05-14T06:06:20.176Z,7.05
2023-05-14T06:08:47.073Z,7.75
2023-05-14T06:11:13.931Z,6.35
2023-05-14T06:13:40.870Z,8.05
2023-05-14T06:16:07.991Z,6.45
2023-05-14T06:18:35.004Z,9.50
2023-05-14T06:21:02.054Z,8.20
2023-05-14T06:23:30.127Z,8.45
2023-05-14T06:25:56.969Z,10.93
2023-05-14T06:28:24.008Z,9.65
2023-05-14T06:30:50.909Z,9.13
2023-05-14T06:33:20.030Z,9.48
2023-05-14T06:35:47.542Z,8.20
2023-05-14T06:38:14.463Z,9.82
2023-05-14T06:40:41.366Z,8.98
2023-05-14T06:43:08.267Z,8.52
2023-05-14T06:45:35.889Z,10.88
2023-05-14T06:48:02.976Z,11.23
2023-05-14T06:50:29.994Z,7.97
2023-05-14T06:52:56.965Z,9.50
2023-05-14T06:55:23.889Z,8.30
2023-05-14T06:57:50.984Z,9.25
2023-05-14T07:00:18.307Z,8.95
2023-05-14T07:02:45.277Z,8.07
2023-05-14T07:05:12.277Z,9.82
2023-05-14T07:07:39.182Z,8.40
2023-05-14T07:10:06.872Z,7.82
2023-05-14T07:12:33.766Z,7.82
2023-05-14T07:15:00.658Z,10.15
2023-05-14T07:17:27.800Z,8.60
2023-05-14T07:19:56.046Z,9.60
2023-05-14T07:22:22.940Z,12.98
2023-05-14T07:24:50.423Z,10.10
2023-05-14T07:27:17.336Z,8.75
2023-05-14T07:29:44.706Z,10.82
2023-05-14T07:32:13.973Z,9.75
2023-05-14T07:34:42.476Z,9.85
2023-05-14T07:37:09.588Z,8.82
2023-05-14T07:39:36.616Z,9.48
2023-05-14T07:42:04.674Z,9.07
2023-05-14T07:44:31.704Z,8.00
2023-05-14T07:46:58.773Z,8.75
2023-05-14T07:49:25.773Z,9.82
2023-05-14T07:51:52.719Z,11.50
2023-05-14T07:54:19.601Z,9.02
2023-05-14T07:56:46.470Z,8.77
2023-05-14T07:59:13.313Z,8.95
2023-05-14T08:01:40.706Z,8.15
2023-05-14T08:04:08.158Z,8.77
2023-05-14T08:06:35.188Z,9.93
2023-05-14T08:09:02.135Z,8.13
2023-05-14T08:11:29.081Z,9.90
2023-05-14T08:13:56.445Z,9.23
2023-05-14T08:16:24.819Z,10.75
2023-05-14T08:18:52.220Z,10.40
2023-05-14T08:21:19.208Z,8.88
2023-05-14T08:23:46.160Z,11.38
2023-05-14T08:26:13.135Z,9.98
2023-05-14T08:28:40.374Z,7.78
2023-05-14T08:31:07.340Z,7.32
2023-05-14T08:33:34.305Z,7.60
2023-05-14T08:36:01.732Z,7.55
2023-05-14T08:38:28.717Z,7.53
2023-05-14T08:40:59.733Z,7.88
2023-05-14T08:43:29.297Z,8.23
2023-05-14T08:46:00.716Z,8.32
2023-05-14T08:48:32.466Z,9.63
2023-05-14T08:50:59.917Z,7.93
2023-05-14T08:53:26.960Z,8.50
2023-05-14T08:55:54.174Z,8.77
2023-05-14T08:58:21.376Z,7.47
2023-05-14T09:00:48.411Z,7.65
2023-05-14T09:03:16.066Z,5.97
2023-05-14T09:05:43.438Z,6.07
2023-05-14T09:08:10.433Z,9.20
2023-05-14T09:10:37.916Z,7.47
2023-05-14T09:13:05.756Z,6.88
2023-05-14T09:15:34.387Z,7.15
2023-05-14T09:18:01.336Z,8.13
2023-05-14T09:20:28.559Z,9.07
2023-05-14T09:22:56.715Z,9.85
2023-05-14T09:25:27.718Z,8.40
2023-05-14T09:27:57.287Z,9.68
2023-05-14T09:30:27.151Z,7.57
2023-05-14T09:32:55.390Z,7.03
2023-05-14T09:35:24.878Z,6.63
2023-05-14T09:37:54.087Z,8.68
2023-05-14T09:40:24.165Z,8.30
2023-05-14T09:42:51.703Z,7.63
2023-05-14T09:45:18.796Z,7.15
2023-05-14T09:47:46.181Z,8.15
2023-05-14T09:50:13.539Z,8.90
2023-05-14T09:52:40.734Z,6.38
2023-05-14T09:55:08.287Z,5.35
2023-05-14T09:57:35.451Z,5.82
2023-05-14T10:00:02.751Z,7.85
2023-05-14T10:02:37.939Z,6.55
2023-05-14T10:05:06.898Z,6.68
2023-05-14T10:07:44.526Z,6.55
2023-05-14T10:10:16.867Z,5.72
2023-05-14T10:15:30.050Z,5.82
2023-05-14T10:18:00.312Z,6.60
2023-05-14T10:20:27.970Z,5.70
2023-05-14T10:22:55.270Z,5.20
2023-05-14T10:25:22.963Z,5.63
2023-05-14T10:27:49.988Z,5.75
2023-05-14T10:30:16.925Z,5.65
2023-05-14T10:32:44.363Z,5.20
2023-05-14T10:35:20.607Z,6.97
2023-05-14T10:37:51.424Z,4.85
2023-05-14T10:40:19.305Z,5.50
2023-05-14T10:42:47.045Z,6.63
2023-05-14T10:45:15.697Z,4.68
2023-05-14T10:47:44.401Z,4.95
2023-05-14T10:50:14.135Z,5.03
2023-05-14T10:52:43.655Z,5.60
2023-05-14T10:55:14.042Z,4.00
2023-05-14T10:57:44.128Z,4.20
2023-05-14T11:00:12.885Z,3.95
2023-05-14T11:02:42.461Z,4.13
2023-05-14T11:05:11.562Z,4.60
2023-05-14T11:07:42.472Z,5.03
2023-05-14T11:10:20.124Z,4.68
2023-05-14T11:12:51.241Z,4.80
2023-05-14T11:15:23.031Z,3.92
2023-05-14T11:17:51.434Z,5.95
2023-05-14T11:20:19.210Z,4.20
2023-05-14T11:22:47.996Z,5.57
2023-05-14T11:25:15.672Z,4.93
2023-05-14T11:27:44.892Z,5.88
2023-05-14T11:30:16.568Z,5.03
2023-05-14T11:32:46.168Z,4.90
2023-05-14T11:35:13.657Z,5.28
2023-05-14T11:37:40.812Z,6.05
2023-05-14T11:40:14.260Z,4.47
2023-05-14T11:42:41.814Z,4.25
2023-05-14T11:45:13.115Z,4.18
2023-05-14T11:47:42.838Z,4.55
2023-05-14T11:50:11.180Z,4.28
2023-05-14T11:52:41.885Z,4.18
2023-05-14T11:55:14.930Z,4.18
2023-05-14T11:57:42.738Z,4.13
2023-05-14T12:00:14.508Z,3.60
2023-05-14T12:02:41.706Z,3.50
2023-05-14T12:05:11.593Z,3.75
2023-05-14T12:07:39.732Z,3.55
2023-05-14T12:10:07.353Z,3.95
2023-05-14T12:12:37.505Z,4.30
2023-05-14T12:15:12.914Z,3.75
2023-05-14T12:17:39.981Z,2.65
2023-05-14T12:20:12.592Z,3.30
2023-05-14T12:22:42.598Z,4.32
2023-05-14T12:25:14.004Z,3.80
2023-05-14T12:27:44.794Z,4.68
2023-05-14T12:30:20.493Z,3.47
2023-05-14T12:32:51.647Z,3.80
2023-05-14T12:35:22.845Z,3.63
2023-05-14T12:37:50.261Z,3.65
2023-05-14T12:40:17.287Z,3.78
2023-05-14T12:42:44.228Z,4.88
2023-05-14T12:45:11.900Z,4.20
2023-05-14T12:47:38.863Z,4.13
2023-05-14T12:50:06.542Z,5.28
2023-05-14T12:52:38.347Z,3.88
2023-05-14T12:55:07.865Z,4.18
2023-05-14T12:57:35.740Z,5.13
2023-05-14T13:00:06.917Z,3.95
2023-05-14T13:02:42.905Z,3.72
2023-05-14T13:05:11.408Z,4.05
2023-05-14T13:07:38.898Z,3.78
2023-05-14T13:10:06.733Z,3.05
2023-05-14T13:12:34.115Z,3.25
2023-05-14T13:15:01.150Z,3.25
2023-05-14T13:17:28.344Z,3.20
2023-05-14T13:19:55.720Z,3.83
2023-05-14T13:22:22.759Z,4.65
2023-05-14T13:24:49.846Z,2.58
2023-05-14T13:27:17.332Z,2.38
2023-05-14T13:29:45.059Z,2.28
2023-05-14T13:32:12.043Z,2.05
2023-05-14T13:34:39.457Z,2.42
2023-05-14T13:37:06.559Z,2.28
2023-05-14T13:39:33.489Z,3.58
2023-05-14T13:42:01.212Z,3.28
2023-05-14T13:44:28.265Z,2.60
2023-05-14T13:46:55.274Z,6.68
2023-05-14T13:49:22.275Z,2.30
2023-05-14T13:51:49.174Z,1.83
2023-05-14T13:54:16.135Z,2.28
2023-05-14T13:56:43.075Z,2.30
2023-05-14T13:59:11.187Z,2.35
2023-05-14T14:01:38.239Z,2.30
2023-05-14T14:04:05.372Z,1.90
2023-05-14T14:06:33.338Z,2.58
2023-05-14T14:09:00.396Z,2.70
2023-05-14T14:11:27.951Z,1.55
2023-05-14T14:13:54.962Z,1.90
2023-05-14T14:16:21.987Z,2.03
2023-05-14T14:18:49.066Z,2.30
2023-05-14T14:21:18.496Z,2.58
2023-05-14T14:23:48.923Z,2.65
2023-05-14T14:26:16.072Z,3.40
2023-05-14T14:28:43.185Z,2.58
2023-05-14T14:31:10.701Z,2.35
2023-05-14T14:33:37.683Z,1.98
2023-05-14T14:36:05.509Z,1.60
2023-05-14T14:38:32.526Z,1.25
2023-05-14T14:41:00.206Z,2.30
2023-05-14T14:43:27.459Z,1.30
2023-05-14T14:45:55.304Z,1.73
2023-05-14T14:48:28.554Z,2.33
2023-05-14T14:50:56.094Z,1.35
2023-05-14T14:53:24.617Z,1.42
2023-05-14T14:55:53.129Z,1.30
2023-05-14T14:58:21.548Z,1.08
2023-05-14T15:00:53.567Z,1.33
2023-05-14T15:05:53.782Z,1.23
2023-05-14T15:08:24.369Z,1.42
2023-05-14T15:10:51.408Z,1.92
2023-05-14T15:13:18.884Z,1.50
2023-05-14T15:15:45.768Z,1.30
2023-05-14T15:18:12.932Z,1.38
2023-05-14T15:20:40.547Z,1.85
2023-05-14T15:23:07.765Z,1.67
2023-05-14T15:25:34.675Z,1.88
2023-05-14T15:28:02.571Z,2.05
2023-05-14T15:30:30.376Z,2.30
2023-05-14T15:32:57.552Z,1.60
2023-05-14T15:35:24.893Z,2.53
2023-05-14T15:37:56.494Z,2.20
2023-05-14T15:40:23.764Z,2.10
2023-05-14T15:42:50.931Z,3.65
2023-05-14T15:45:17.983Z,2.13
2023-05-14T15:47:45.350Z,2.95
2023-05-14T15:50:12.606Z,2.03
2023-05-14T15:52:41.594Z,2.65
2023-05-14T15:55:09.029Z,3.63
2023-05-14T15:57:36.147Z,2.03
2023-05-14T16:00:13.558Z,2.08
2023-05-14T16:02:41.233Z,2.38
2023-05-14T16:05:09.384Z,2.35
2023-05-14T16:07:36.858Z,2.03
2023-05-14T16:10:05.028Z,2.53
2023-05-14T16:12:32.099Z,2.75
2023-05-14T16:15:00.330Z,2.38
2023-05-14T16:17:28.445Z,2.28
2023-05-14T16:19:56.523Z,2.20
2023-05-14T16:22:23.737Z,4.65
2023-05-14T16:24:50.812Z,2.22
2023-05-14T16:27:19.212Z,2.35
2023-05-14T16:29:46.223Z,2.08
2023-05-14T16:32:13.421Z,2.00
2023-05-14T16:34:40.701Z,3.63
2023-05-14T16:37:08.182Z,2.28
2023-05-14T16:39:35.099Z,2.50
2023-05-14T16:42:02.075Z,2.22
2023-05-14T16:44:28.971Z,2.22
2023-05-14T16:46:56.629Z,2.30
2023-05-14T16:49:23.672Z,2.95
2023-05-14T16:51:50.608Z,2.78
2023-05-14T16:54:17.538Z,2.55
2023-05-14T16:56:48.326Z,2.67
2023-05-14T16:59:16.803Z,2.70
2023-05-14T17:01:44.527Z,3.85
2023-05-14T17:04:11.663Z,2.40
2023-05-14T17:06:38.952Z,2.15
2023-05-14T17:09:06.968Z,2.55
2023-05-14T17:11:33.961Z,2.30
2023-05-14T17:14:00.945Z,2.53
2023-05-14T17:16:28.191Z,2.60
2023-05-14T17:18:55.396Z,2.53
2023-05-14T17:21:22.446Z,2.42
2023-05-14T17:23:49.460Z,2.30
2023-05-14T17:26:16.446Z,2.90
2023-05-14T17:28:43.495Z,2.78
2023-05-14T17:31:10.666Z,4.22
2023-05-14T17:33:37.842Z,3.28
2023-05-14T17:36:04.947Z,2.80
2023-05-14T17:38:32.219Z,2.47
2023-05-14T17:40:59.359Z,2.78
2023-05-14T17:43:26.343Z,3.85
2023-05-14T17:45:54.806Z,2.67
2023-05-14T17:48:23.297Z,5.78
2023-05-14T17:50:51.816Z,2.90
2023-05-14T17:53:18.901Z,2.75
2023-05-14T17:55:46.055Z,2.60
2023-05-14T17:58:15.423Z,2.67
2023-05-14T18:00:43.653Z,4.15
2023-05-14T18:03:11.383Z,3.55
2023-05-14T18:05:38.622Z,3.45
2023-05-14T18:08:05.750Z,2.78
2023-05-14T18:10:32.813Z,3.72
2023-05-14T18:12:59.806Z,3.30
2023-05-14T18:15:27.488Z,2.70
2023-05-14T18:17:54.681Z,3.00
2023-05-14T18:20:21.892Z,2.83
2023-05-14T18:22:50.594Z,4.32
2023-05-14T18:25:17.625Z,3.80
2023-05-14T18:27:45.348Z,3.33
2023-05-14T18:30:14.744Z,3.80
2023-05-14T18:32:44.314Z,3.28
2023-05-14T18:35:12.957Z,3.38
2023-05-14T18:37:43.049Z,5.40
2023-05-14T18:40:11.302Z,2.60
2023-05-14T18:42:38.298Z,3.58
2023-05-14T18:45:05.738Z,3.10
2023-05-14T18:47:33.766Z,4.10
2023-05-14T18:50:02.115Z,5.13
2023-05-14T18:52:29.542Z,4.13
2023-05-14T18:54:57.014Z,5.95
2023-05-14T18:57:24.099Z,3.60
2023-05-14T18:59:51.115Z,3.83
2023-05-14T19:02:18.116Z,6.50
2023-05-14T19:04:52.437Z,5.18
2023-05-14T19:07:21.052Z,6.07
2023-05-14T19:09:48.926Z,5.10
2023-05-14T19:12:17.505Z,7.30
2023-05-14T19:14:44.796Z,5.13
2023-05-14T19:17:11.880Z,7.50
2023-05-14T19:19:39.512Z,5.13
2023-05-14T19:22:06.906Z,4.63
2023-05-14T19:24:34.181Z,3.78
2023-05-14T19:27:01.186Z,4.65
2023-05-14T19:29:28.268Z,7.88
2023-05-14T19:31:55.179Z,7.20
2023-05-14T19:34:22.086Z,5.30
2023-05-14T19:36:49.016Z,4.93
2023-05-14T19:39:16.216Z,4.90
2023-05-14T19:41:43.160Z,4.70
2023-05-14T19:44:10.215Z,5.40
2023-05-14T19:46:37.222Z,7.65
2023-05-14T19:49:04.280Z,5.72
2023-05-14T19:51:31.502Z,4.50
2023-05-14T19:53:58.463Z,3.90
2023-05-14T19:56:27.106Z,4.28
2023-05-14T19:58:54.693Z,6.68
2023-05-14T20:01:21.888Z,5.05
2023-05-14T20:03:48.870Z,5.32
2023-05-14T20:06:17.451Z,6.60
2023-05-14T20:08:45.446Z,5.15
2023-05-14T20:11:12.686Z,3.90
2023-05-14T20:13:39.739Z,6.55
2023-05-14T20:16:06.800Z,4.82
2023-05-14T20:18:33.798Z,5.65
2023-05-14T20:21:01.354Z,5.05
2023-05-14T20:23:28.430Z,6.45
2023-05-14T20:25:55.755Z,5.32
2023-05-14T20:28:22.694Z,4.70
2023-05-14T20:30:49.662Z,5.13
2023-05-14T20:33:17.031Z,6.25
2023-05-14T20:35:44.237Z,6.85
2023-05-14T20:38:12.771Z,4.72
2023-05-14T20:40:40.380Z,4.00
2023-05-14T20:43:07.357Z,4.40
2023-05-14T20:45:34.340Z,4.57
2023-05-14T20:48:01.559Z,6.05
2023-05-14T20:50:28.521Z,3.67
2023-05-14T20:52:55.697Z,4.60
2023-05-14T20:55:23.109Z,4.72
2023-05-14T20:57:50.631Z,6.38
2023-05-14T21:00:18.017Z,4.72
2023-05-14T21:02:45.311Z,5.15
2023-05-14T21:05:13.864Z,3.85
2023-05-14T21:07:41.013Z,4.07
2023-05-14T21:10:11.291Z,6.30
2023-05-14T21:12:38.285Z,6.03
2023-05-14T21:15:05.799Z,4.60
2023-05-14T21:17:32.975Z,4.10
2023-05-14T21:20:00.013Z,5.20
2023-05-14T21:22:27.634Z,5.35
2023-05-14T21:24:55.994Z,5.95
2023-05-14T21:27:23.115Z,5.45
2023-05-14T21:29:50.092Z,6.32
2023-05-14T21:32:17.139Z,4.32
2023-05-14T21:34:44.060Z,4.47
2023-05-14T21:37:11.068Z,5.10
2023-05-14T21:39:38.131Z,4.03
2023-05-14T21:42:05.375Z,4.05
2023-05-14T21:44:32.268Z,6.00
2023-05-14T21:46:59.508Z,4.75
2023-05-14T21:49:26.412Z,4.50
2023-05-14T21:51:54.571Z,4.68
2023-05-14T21:54:21.659Z,4.10
2023-05-14T21:56:48.852Z,4.65
2023-05-14T21:59:15.826Z,6.07
2023-05-14T22:04:13.213Z,4.38
2023-05-14T22:06:40.571Z,4.63
2023-05-14T22:09:07.470Z,7.47
2023-05-14T22:11:34.375Z,4.93
2023-05-14T22:14:02.294Z,4.57
2023-05-14T22:16:29.223Z,4.47
2023-05-14T22:18:56.186Z,5.00
2023-05-14T22:21:23.179Z,4.82
2023-05-14T22:23:50.414Z,4.22
2023-05-14T22:26:17.403Z,4.25
2023-05-14T22:28:44.396Z,4.90
2023-05-14T22:31:11.458Z,7.90
2023-05-14T22:33:38.434Z,5.18
2023-05-14T22:36:07.008Z,5.18
2023-05-14T22:38:34.323Z,6.00
2023-05-14T22:41:01.287Z,7.05
2023-05-14T22:43:28.267Z,6.40
2023-05-14T22:45:55.623Z,4.72
2023-05-14T22:48:22.615Z,6.22
2023-05-14T22:50:49.528Z,4.78
2023-05-14T22:53:16.545Z,5.28
2023-05-14T22:55:43.707Z,5.28
2023-05-14T22:58:10.711Z,5.00
2023-05-14T23:00:37.743Z,5.93
2023-05-14T23:03:04.787Z,6.35
2023-05-14T23:05:31.734Z,5.53
2023-05-14T23:07:59.145Z,5.65
2023-05-14T23:10:26.122Z,4.63
2023-05-14T23:12:53.121Z,4.60
2023-05-14T23:15:20.254Z,5.00
2023-05-14T23:17:47.537Z,8.07
2023-05-14T23:20:14.461Z,6.60
2023-05-14T23:22:41.365Z,4.90
2023-05-14T23:25:08.945Z,7.45
2023-05-14T23:27:35.897Z,5.53
2023-05-14T23:30:04.011Z,6.18
2023-05-14T23:32:31.118Z,5.53
2023-05-14T23:34:58.075Z,5.72
2023-05-14T23:37:25.021Z,5.93
2023-05-14T23:39:52.299Z,8.25
2023-05-14T23:42:19.192Z,5.82
2023-05-14T23:44:46.098Z,8.13
2023-05-14T23:47:13.054Z,5.20
2023-05-14T23:49:40.860Z,5.32
2023-05-14T23:52:07.794Z,5.50
2023-05-14T23:54:34.819Z,4.25
2023-05-14T23:57:04.010Z,4.55
2023-05-14T23:59:31.095Z,4.80
